createdAt,value
2018-12-17T00:01:06.098Z,101451.37
2018-12-17T00:03:34.491Z,101437.28
2018-12-17T00:06:03.982Z,101437.55
2018-12-17T00:08:33.177Z,101436.25
2018-12-17T00:11:02.212Z,101445.01
2018-12-17T00:13:30.573Z,101441.51
2018-12-17T00:15:58.825Z,101439.61
2018-12-17T00:18:27.153Z,101433.00
2018-12-17T00:20:55.459Z,101429.84
2018-12-17T00:23:23.831Z,101428.55
2018-12-17T00:25:52.132Z,101433.98
2018-12-17T00:28:20.443Z,101437.62
2018-12-17T00:30:48.696Z,101440.13
2018-12-17T00:33:16.961Z,101436.71
2018-12-17T00:35:45.206Z,101446.05
2018-12-17T00:38:13.499Z,101443.93
2018-12-17T00:40:42.068Z,101443.93
2018-12-17T00:43:17.085Z,101441.47
2018-12-17T00:45:45.471Z,101439.78
2018-12-17T00:48:13.826Z,101442.28
2018-12-17T00:50:42.134Z,101446.30
2018-12-17T00:53:10.438Z,101452.01
2018-12-17T00:55:38.742Z,101447.69
2018-12-17T00:58:07.014Z,101452.19
2018-12-17T01:00:35.336Z,101451.58
2018-12-17T01:03:03.731Z,101449.72
2018-12-17T01:05:32.164Z,101446.30
2018-12-17T01:08:00.594Z,101448.86
2018-12-17T01:10:28.878Z,101450.76
2018-12-17T01:12:57.199Z,101456.77
2018-12-17T01:15:25.435Z,101468.00
2018-12-17T01:17:53.678Z,101476.73
2018-12-17T01:20:21.951Z,101468.34
2018-12-17T01:22:50.370Z,101468.65
2018-12-17T01:25:18.745Z,101468.65
2018-12-17T01:27:47.013Z,101471.72
2018-12-17T01:30:15.248Z,101462.21
2018-12-17T01:32:43.629Z,101463.85
2018-12-17T01:35:11.902Z,101464.76
2018-12-17T01:37:40.179Z,101462.90
2018-12-17T01:40:08.515Z,101469.73
2018-12-17T01:42:36.777Z,101474.01
2018-12-17T01:45:05.751Z,101474.14
2018-12-17T01:47:34.028Z,101471.80
2018-12-17T01:50:02.304Z,101469.55
2018-12-17T01:52:30.672Z,101472.37
2018-12-17T01:54:58.893Z,101484.03
2018-12-17T01:57:27.250Z,101486.97
2018-12-17T01:59:55.505Z,101490.48
2018-12-17T02:02:23.843Z,101488.84
2018-12-17T02:04:52.184Z,101483.99
2018-12-17T02:07:20.409Z,101487.75
2018-12-17T02:09:48.686Z,101491.03
2018-12-17T02:12:17.023Z,101502.96
2018-12-17T02:14:45.285Z,101498.94
2018-12-17T02:17:13.648Z,101491.03
2018-12-17T02:19:41.880Z,101491.25
2018-12-17T02:22:10.213Z,101490.77
2018-12-17T02:24:38.473Z,101495.18
2018-12-17T02:27:06.866Z,101502.70
2018-12-17T02:29:35.107Z,101496.56
2018-12-17T02:32:03.367Z,101494.79
2018-12-17T02:34:31.618Z,101497.08
2018-12-17T02:36:59.874Z,101499.63
2018-12-17T02:39:28.168Z,101505.42
2018-12-17T02:41:56.469Z,101511.66
2018-12-17T02:44:24.901Z,101506.12
2018-12-17T02:46:53.251Z,101500.93
2018-12-17T02:49:21.834Z,101510.14
2018-12-17T02:51:50.157Z,101515.20
2018-12-17T02:54:18.508Z,101508.75
2018-12-17T02:56:46.787Z,101512.26
2018-12-17T02:59:15.633Z,101516.23
2018-12-17T03:01:43.927Z,101524.75
2018-12-17T03:04:12.520Z,101519.05
2018-12-17T03:06:40.791Z,101522.46
2018-12-17T03:09:09.024Z,101523.97
2018-12-17T03:11:38.624Z,101528.81
2018-12-17T03:14:07.015Z,101530.59
2018-12-17T03:16:35.347Z,101531.67
2018-12-17T03:19:03.595Z,101530.46
2018-12-17T03:21:31.855Z,101530.98
2018-12-17T03:24:00.341Z,101537.38
2018-12-17T03:26:28.661Z,101538.80
2018-12-17T03:28:57.352Z,101538.41
2018-12-17T03:31:25.623Z,101538.84
2018-12-17T03:33:54.004Z,101544.89
2018-12-17T03:36:22.322Z,101545.72
2018-12-17T03:38:50.599Z,101549.48
2018-12-17T03:41:18.989Z,101558.72
2018-12-17T03:43:47.271Z,101556.70
2018-12-17T03:46:15.585Z,101556.70
2018-12-17T03:48:43.906Z,101558.72
2018-12-17T03:51:12.180Z,101560.59
2018-12-17T03:53:40.391Z,101562.54
2018-12-17T03:56:09.328Z,101568.30
2018-12-17T03:58:37.606Z,101557.56
2018-12-17T04:01:05.893Z,101556.95
2018-12-17T04:03:34.221Z,101554.63
2018-12-17T04:06:02.841Z,101556.22
2018-12-17T04:08:31.367Z,101566.72
2018-12-17T04:10:59.665Z,101571.31
2018-12-17T04:13:27.921Z,101564.34
2018-12-17T04:15:56.546Z,101568.72
2018-12-17T04:18:25.785Z,101564.95
2018-12-17T04:20:54.174Z,101568.11
2018-12-17T04:23:22.451Z,101572.56
2018-12-17T04:25:51.149Z,101574.81
2018-12-17T04:28:19.682Z,101570.48
2018-12-17T04:30:47.929Z,101570.39
2018-12-17T04:33:16.334Z,101573.39
2018-12-17T04:35:44.939Z,101573.64
2018-12-17T04:38:13.530Z,101577.31
2018-12-17T04:40:42.144Z,101582.81
2018-12-17T04:43:10.416Z,101583.64
2018-12-17T04:45:38.839Z,101584.24
2018-12-17T04:48:07.218Z,101593.06
2018-12-17T04:50:35.466Z,101580.70
2018-12-17T04:53:03.730Z,101587.78
2018-12-17T04:55:31.992Z,101584.45
2018-12-17T04:58:00.673Z,101595.66
2018-12-17T05:00:28.981Z,101600.37
2018-12-17T05:02:57.505Z,101603.79
2018-12-17T05:05:25.829Z,101614.89
2018-12-17T05:07:55.198Z,101620.11
2018-12-17T05:10:23.482Z,101618.94
2018-12-17T05:12:51.732Z,101628.02
2018-12-17T05:15:20.027Z,101634.00
2018-12-17T05:17:48.368Z,101631.88
2018-12-17T05:20:16.703Z,101637.55
2018-12-17T05:22:45.425Z,101640.48
2018-12-17T05:25:13.734Z,101641.18
2018-12-17T05:27:42.353Z,101651.08
2018-12-17T05:30:10.937Z,101652.60
2018-12-17T05:32:39.360Z,101656.21
2018-12-17T05:35:07.608Z,101655.95
2018-12-17T05:37:36.021Z,101660.89
2018-12-17T05:40:05.211Z,101661.14
2018-12-17T05:42:33.459Z,101656.87
2018-12-17T05:45:02.221Z,101658.90
2018-12-17T05:47:30.618Z,101666.84
2018-12-17T05:49:58.975Z,101670.89
2018-12-17T05:52:27.662Z,101671.59
2018-12-17T05:54:55.935Z,101665.70
2018-12-17T05:57:24.161Z,101670.35
2018-12-17T05:59:52.489Z,101671.02
2018-12-17T06:02:20.780Z,101674.25
2018-12-17T06:04:49.027Z,101671.56
2018-12-17T06:07:17.366Z,101674.88
2018-12-17T06:09:45.683Z,101674.50
2018-12-17T06:12:13.977Z,101679.12
2018-12-17T06:14:42.216Z,101678.05
2018-12-17T06:17:10.569Z,101679.94
2018-12-17T06:19:38.869Z,101680.89
2018-12-17T06:22:07.137Z,101686.68
2018-12-17T06:24:35.470Z,101694.47
2018-12-17T06:27:03.765Z,101701.88
2018-12-17T06:29:35.576Z,101705.41
2018-12-17T06:32:02.448Z,101697.75
2018-12-17T06:34:30.778Z,101708.14
2018-12-17T06:36:59.067Z,101704.44
2018-12-17T06:39:27.462Z,101707.98
2018-12-17T06:41:55.782Z,101714.72
2018-12-17T06:44:24.653Z,101719.06
2018-12-17T06:46:52.997Z,101719.31
2018-12-17T06:49:21.243Z,101724.84
2018-12-17T06:51:49.632Z,101727.33
2018-12-17T06:54:18.297Z,101722.67
2018-12-17T06:56:46.538Z,101730.48
2018-12-17T06:59:14.939Z,101732.27
2018-12-17T07:01:43.201Z,101732.51
2018-12-17T07:04:11.480Z,101733.20
2018-12-17T07:06:39.743Z,101728.69
2018-12-17T07:09:08.005Z,101737.17
2018-12-17T07:11:36.277Z,101743.66
2018-12-17T07:14:04.629Z,101744.13
2018-12-17T07:16:32.949Z,101750.66
2018-12-17T07:19:01.328Z,101750.30
2018-12-17T07:21:29.571Z,101752.52
2018-12-17T07:23:58.932Z,101751.95
2018-12-17T07:26:28.784Z,101759.61
2018-12-17T07:28:57.331Z,101755.02
2018-12-17T07:31:25.597Z,101752.20
2018-12-17T07:33:53.945Z,101751.48
2018-12-17T07:36:29.570Z,101755.50
2018-12-17T07:38:57.920Z,101766.83
2018-12-17T07:41:26.255Z,101761.03
2018-12-17T07:43:54.670Z,101755.97
2018-12-17T07:46:23.033Z,101770.44
2018-12-17T07:48:57.109Z,101772.69
2018-12-17T07:51:25.473Z,101777.41
2018-12-17T07:53:53.857Z,101775.28
2018-12-17T07:59:16.123Z,101781.30
2018-12-17T08:01:44.515Z,101790.59
2018-12-17T08:04:12.900Z,101796.13
2018-12-17T08:06:41.125Z,101788.72
2018-12-17T08:09:09.387Z,101799.45
2018-12-17T08:11:37.676Z,101804.17
2018-12-17T08:14:05.937Z,101810.19
2018-12-17T08:16:34.194Z,101809.48
2018-12-17T08:19:02.544Z,101809.96
2018-12-17T08:21:30.807Z,101811.03
2018-12-17T08:23:59.044Z,101818.09
2018-12-17T08:26:27.331Z,101813.58
2018-12-17T08:28:55.643Z,101815.42
2018-12-17T08:31:24.015Z,101815.45
2018-12-17T08:33:52.385Z,101820.42
2018-12-17T08:36:20.895Z,101819.59
2018-12-17T08:38:49.153Z,101816.05
2018-12-17T08:41:17.543Z,101819.13
2018-12-17T08:43:46.086Z,101819.72
2018-12-17T08:46:14.348Z,101823.72
2018-12-17T08:48:42.723Z,101827.61
2018-12-17T08:51:11.026Z,101822.77
2018-12-17T08:53:39.253Z,101830.11
2018-12-17T08:56:07.473Z,101823.84
2018-12-17T08:58:35.881Z,101828.21
2018-12-17T09:01:04.128Z,101825.23
2018-12-17T09:03:32.516Z,101822.93
2018-12-17T09:06:00.740Z,101825.14
2018-12-17T09:09:53.179Z,101831.52
2018-12-17T09:12:21.487Z,101838.14
2018-12-17T09:14:49.843Z,101846.53
2018-12-17T09:17:18.088Z,101841.37
2018-12-17T09:19:46.371Z,101840.89
2018-12-17T09:22:14.762Z,101844.09
2018-12-17T09:24:43.059Z,101845.80
2018-12-17T09:27:11.676Z,101845.04
2018-12-17T09:29:39.975Z,101851.16
2018-12-17T09:32:08.240Z,101861.96
2018-12-17T09:34:36.501Z,101860.91
2018-12-17T09:37:04.888Z,101867.98
2018-12-17T09:39:33.166Z,101862.44
2018-12-17T09:42:01.431Z,101869.06
2018-12-17T09:44:29.762Z,101870.58
2018-12-17T09:46:58.030Z,101866.81
2018-12-17T09:49:26.463Z,101866.02
2018-12-17T09:51:54.695Z,101862.81
2018-12-17T09:54:22.970Z,101865.03
2018-12-17T09:56:51.270Z,101872.36
2018-12-17T09:59:19.497Z,101870.48
2018-12-17T10:01:51.237Z,101865.86
2018-12-17T10:04:20.090Z,101868.02
2018-12-17T10:06:48.704Z,101860.16
2018-12-17T10:09:16.983Z,101855.12
2018-12-17T10:11:45.202Z,101852.99
2018-12-17T10:14:13.561Z,101858.19
2018-12-17T10:16:41.871Z,101852.52
2018-12-17T10:19:10.127Z,101862.44
2018-12-17T10:21:38.488Z,101857.59
2018-12-17T10:24:06.813Z,101859.55
2018-12-17T10:26:35.280Z,101856.91
2018-12-17T10:29:03.564Z,101854.70
2018-12-17T10:31:31.819Z,101866.39
2018-12-17T10:34:00.083Z,101866.48
2018-12-17T10:36:28.381Z,101858.47
2018-12-17T10:38:56.683Z,101857.34
2018-12-17T10:41:24.926Z,101855.92
2018-12-17T10:43:59.461Z,101848.77
2018-12-17T10:46:27.675Z,101854.48
2018-12-17T10:48:55.914Z,101855.30
2018-12-17T10:51:24.150Z,101846.21
2018-12-17T10:53:52.522Z,101852.70
2018-12-17T10:56:20.848Z,101856.73
2018-12-17T10:58:49.227Z,101857.78
2018-12-17T11:01:22.973Z,101854.00
2018-12-17T11:03:55.744Z,101846.47
2018-12-17T11:06:24.025Z,101844.42
2018-12-17T11:08:52.474Z,101843.52
2018-12-17T11:11:20.713Z,101849.03
2018-12-17T11:13:49.014Z,101849.72
2018-12-17T11:16:17.896Z,101847.68
2018-12-17T11:18:46.206Z,101849.33
2018-12-17T11:21:14.498Z,101839.66
2018-12-17T11:23:42.728Z,101837.10
2018-12-17T11:26:11.263Z,101829.91
2018-12-17T11:28:39.529Z,101841.94
2018-12-17T11:31:07.892Z,101829.07
2018-12-17T11:33:36.271Z,101834.88
2018-12-17T11:36:04.675Z,101831.38
2018-12-17T11:38:32.913Z,101829.65
2018-12-17T11:41:01.273Z,101828.70
2018-12-17T11:43:29.810Z,101830.00
2018-12-17T11:45:58.109Z,101833.16
2018-12-17T11:48:26.446Z,101830.95
2018-12-17T11:50:54.783Z,101829.39
2018-12-17T11:53:23.059Z,101836.37
2018-12-17T11:55:51.287Z,101840.35
2018-12-17T11:58:19.543Z,101842.02
2018-12-17T12:00:53.987Z,101839.30
2018-12-17T12:03:22.694Z,101835.44
2018-12-17T12:05:50.998Z,101835.11
2018-12-17T12:08:19.223Z,101827.22
2018-12-17T12:10:47.461Z,101819.03
2018-12-17T12:13:15.739Z,101823.95
2018-12-17T12:15:44.016Z,101825.03
2018-12-17T12:18:12.245Z,101820.27
2018-12-17T12:20:40.595Z,101819.09
2018-12-17T12:23:08.847Z,101821.00
2018-12-17T12:25:37.087Z,101839.98
2018-12-17T12:28:05.405Z,101850.47
2018-12-17T12:30:33.790Z,101855.66
2018-12-17T12:33:02.207Z,101854.50
2018-12-17T12:35:30.466Z,101853.73
2018-12-17T12:37:58.709Z,101856.06
2018-12-17T12:40:27.059Z,101857.84
2018-12-17T12:42:55.432Z,101863.83
2018-12-17T12:45:23.793Z,101862.80
2018-12-17T12:47:52.044Z,101866.36
2018-12-17T12:50:27.016Z,101868.44
2018-12-17T12:52:55.308Z,101866.63
2018-12-17T12:55:23.560Z,101858.58
2018-12-17T12:57:51.889Z,101857.55
2018-12-17T13:00:20.588Z,101862.04
2018-12-17T13:02:48.943Z,101867.48
2018-12-17T13:05:17.250Z,101874.25
2018-12-17T13:07:45.547Z,101872.10
2018-12-17T13:10:13.996Z,101873.64
2018-12-17T13:15:35.915Z,101871.36
2018-12-17T13:18:05.011Z,101871.14
2018-12-17T13:20:33.261Z,101869.25
2018-12-17T13:23:01.536Z,101872.81
2018-12-17T13:25:33.980Z,101868.55
2018-12-17T13:30:55.670Z,101877.66
2018-12-17T13:33:23.930Z,101881.84
2018-12-17T13:35:52.513Z,101879.98
2018-12-17T13:38:20.824Z,101882.59
2018-12-17T13:40:49.811Z,101868.89
2018-12-17T13:43:18.103Z,101881.98
2018-12-17T13:45:46.353Z,101876.16
2018-12-17T13:48:14.637Z,101885.81
2018-12-17T13:50:42.859Z,101882.48
2018-12-17T13:53:16.611Z,101890.42
2018-12-17T13:55:44.840Z,101886.26
2018-12-17T13:58:13.242Z,101881.66
2018-12-17T14:00:41.633Z,101881.58
2018-12-17T14:03:10.051Z,101887.27
2018-12-17T14:05:38.769Z,101890.56
2018-12-17T14:08:07.019Z,101892.55
2018-12-17T14:10:40.875Z,101897.89
2018-12-17T14:13:09.184Z,101894.55
2018-12-17T14:15:42.916Z,101895.00
2018-12-17T14:18:16.732Z,101903.63
2018-12-17T14:20:50.413Z,101902.46
2018-12-17T14:23:19.071Z,101902.83
2018-12-17T14:25:47.362Z,101901.42
2018-12-17T14:28:15.625Z,101911.25
2018-12-17T14:30:43.978Z,101913.64
2018-12-17T14:33:12.474Z,101913.50
2018-12-17T14:35:44.971Z,101908.86
2018-12-17T14:38:13.273Z,101911.84
2018-12-17T14:40:41.506Z,101905.20
2018-12-17T14:43:09.786Z,101908.52
2018-12-17T14:45:38.232Z,101912.08
2018-12-17T14:48:06.490Z,101902.81
2018-12-17T14:50:34.881Z,101912.05
2018-12-17T14:53:03.151Z,101907.94
2018-12-17T14:55:31.418Z,101918.22
2018-12-17T14:57:59.731Z,101922.06
2018-12-17T15:00:28.413Z,101924.48
2018-12-17T15:02:56.764Z,101926.66
2018-12-17T15:05:25.065Z,101931.87
2018-12-17T15:07:53.338Z,101927.70
2018-12-17T15:10:21.865Z,101947.55
2018-12-17T15:12:50.196Z,101939.61
2018-12-17T15:15:18.451Z,101945.92
2018-12-17T15:17:46.754Z,101949.14
2018-12-17T15:20:15.010Z,101943.19
2018-12-17T15:22:43.251Z,101950.23
2018-12-17T15:25:11.729Z,101946.69
2018-12-17T15:27:40.029Z,101951.56
2018-12-17T15:30:08.730Z,101947.77
2018-12-17T15:32:38.127Z,101946.00
2018-12-17T15:35:07.286Z,101948.61
2018-12-17T15:37:36.468Z,101952.30
2018-12-17T15:40:05.614Z,101960.93
2018-12-17T15:42:40.630Z,101962.16
2018-12-17T15:45:05.405Z,101971.88
2018-12-17T15:47:33.719Z,101964.23
2018-12-17T15:50:02.046Z,101969.01
2018-12-17T15:52:30.416Z,101964.06
2018-12-17T15:54:58.698Z,101967.02
2018-12-17T15:57:26.938Z,101968.31
2018-12-17T15:59:55.192Z,101975.59
2018-12-17T16:02:23.723Z,101974.14
2018-12-17T16:04:52.104Z,101981.27
2018-12-17T16:07:20.840Z,101974.75
2018-12-17T16:09:51.118Z,101975.37
2018-12-17T16:12:19.775Z,101975.71
2018-12-17T16:14:48.094Z,101976.77
2018-12-17T16:17:16.642Z,101969.56
2018-12-17T16:19:44.988Z,101978.45
2018-12-17T16:22:13.280Z,101979.85
2018-12-17T16:24:41.640Z,101979.97
2018-12-17T16:27:10.077Z,101978.05
2018-12-17T16:29:38.331Z,101978.66
2018-12-17T16:32:06.920Z,101982.22
2018-12-17T16:34:35.362Z,101990.27
2018-12-17T16:37:03.953Z,101991.70
2018-12-17T16:39:32.336Z,101989.48
2018-12-17T16:42:00.635Z,101993.18
2018-12-17T16:44:28.905Z,101995.44
2018-12-17T16:46:57.916Z,101999.37
2018-12-17T16:49:26.285Z,101997.91
2018-12-17T16:51:54.561Z,101997.77
2018-12-17T16:54:23.011Z,102009.70
2018-12-17T16:56:51.287Z,102013.27
2018-12-17T16:59:19.594Z,102009.08
2018-12-17T17:01:48.002Z,102020.67
2018-12-17T17:04:16.258Z,102019.37
2018-12-17T17:06:44.546Z,102018.15
2018-12-17T17:09:12.865Z,102030.21
2018-12-17T17:11:41.289Z,102022.27
2018-12-17T17:14:09.642Z,102020.44
2018-12-17T17:16:38.167Z,102026.05
2018-12-17T17:19:06.468Z,102033.77
2018-12-17T17:21:34.756Z,102027.74
2018-12-17T17:24:03.069Z,102036.25
2018-12-17T17:26:31.375Z,102035.12
2018-12-17T17:31:53.004Z,102047.31
2018-12-17T17:34:21.532Z,102039.28
2018-12-17T17:36:49.832Z,102038.79
2018-12-17T17:39:18.127Z,102046.87
2018-12-17T17:41:46.468Z,102050.52
2018-12-17T17:44:14.772Z,102040.11
2018-12-17T17:46:43.070Z,102051.39
2018-12-17T17:49:11.328Z,102053.91
2018-12-17T17:51:40.165Z,102057.30
2018-12-17T17:54:08.461Z,102059.69
2018-12-17T17:59:29.290Z,102061.12
2018-12-17T18:01:57.693Z,102056.95
2018-12-17T18:04:26.193Z,102056.47
2018-12-17T18:07:01.024Z,102058.59
2018-12-17T18:09:29.371Z,102054.17
2018-12-17T18:11:57.647Z,102061.89
2018-12-17T18:14:26.006Z,102052.34
2018-12-17T18:16:54.790Z,102062.89
2018-12-17T18:19:23.997Z,102061.94
2018-12-17T18:22:02.552Z,102061.48
2018-12-17T18:24:30.807Z,102059.16
2018-12-17T18:26:59.094Z,102064.97
2018-12-17T18:29:28.296Z,102060.10
2018-12-17T18:31:56.615Z,102061.42
2018-12-17T18:34:25.125Z,102063.05
2018-12-17T18:36:53.390Z,102066.89
2018-12-17T18:39:22.146Z,102076.22
2018-12-17T18:41:50.520Z,102073.87
2018-12-17T18:44:18.800Z,102076.00
2018-12-17T18:46:47.183Z,102068.75
2018-12-17T18:49:15.502Z,102078.13
2018-12-17T18:51:43.868Z,102076.48
2018-12-17T18:54:12.165Z,102071.05
2018-12-17T18:59:33.446Z,102076.34
2018-12-17T19:02:01.715Z,102072.92
2018-12-17T19:04:29.978Z,102073.87
2018-12-17T19:06:58.253Z,102077.87
2018-12-17T19:12:19.934Z,102085.08
2018-12-17T19:14:54.234Z,102092.79
2018-12-17T19:17:23.412Z,102084.37
2018-12-17T19:19:51.700Z,102079.52
2018-12-17T19:22:21.110Z,102085.80
2018-12-17T19:27:42.256Z,102090.05
2018-12-17T19:30:10.650Z,102098.45
2018-12-17T19:32:40.289Z,102097.05
2018-12-17T19:35:09.170Z,102102.60
2018-12-17T19:37:37.421Z,102103.91
2018-12-17T19:40:06.798Z,102100.21
2018-12-17T19:42:35.122Z,102097.95
2018-12-17T19:45:03.516Z,102094.39
2018-12-17T19:47:31.878Z,102103.77
2018-12-17T19:52:52.932Z,102111.06
2018-12-17T19:55:21.368Z,102112.84
2018-12-17T19:57:49.793Z,102114.02
2018-12-17T20:00:18.299Z,102109.77
2018-12-17T20:02:47.097Z,102101.95
2018-12-17T20:05:15.794Z,102120.53
2018-12-17T20:07:44.079Z,102117.78
2018-12-17T20:10:17.787Z,102120.38
2018-12-17T20:12:46.061Z,102119.59
2018-12-17T20:15:14.474Z,102126.20
2018-12-17T20:20:35.374Z,102123.33
2018-12-17T20:23:03.844Z,102118.98
2018-12-17T20:25:32.248Z,102129.00
2018-12-17T20:28:00.530Z,102127.97
2018-12-17T20:30:28.892Z,102128.94
2018-12-17T20:32:57.292Z,102124.63
2018-12-17T20:35:25.995Z,102121.19
2018-12-17T20:37:54.353Z,102122.36
2018-12-17T20:40:23.071Z,102121.80
2018-12-17T20:42:52.146Z,102125.94
2018-12-17T20:45:20.678Z,102139.77
2018-12-17T20:47:49.556Z,102134.59
2018-12-17T20:50:18.147Z,102136.00
2018-12-17T20:52:46.694Z,102140.41
2018-12-17T20:55:15.016Z,102133.17
2018-12-17T20:57:43.861Z,102136.00
2018-12-17T21:00:12.498Z,102132.47
2018-12-17T21:02:40.995Z,102136.11
2018-12-17T21:05:09.497Z,102142.05
2018-12-17T21:07:37.919Z,102136.83
2018-12-17T21:10:07.953Z,102131.99
2018-12-17T21:12:36.401Z,102137.53
2018-12-17T21:15:05.856Z,102130.53
2018-12-17T21:17:34.197Z,102133.77
2018-12-17T21:20:02.535Z,102135.16
2018-12-17T21:22:31.012Z,102134.39
2018-12-17T21:24:59.393Z,102134.13
2018-12-17T21:27:27.790Z,102142.61
2018-12-17T21:29:56.279Z,102140.34
2018-12-17T21:32:24.640Z,102138.08
2018-12-17T21:34:53.122Z,102138.37
2018-12-17T21:37:21.676Z,102133.00
2018-12-17T21:39:49.960Z,102130.27
2018-12-17T21:42:18.348Z,102126.16
2018-12-17T21:44:46.907Z,102128.69
2018-12-17T21:47:15.196Z,102122.24
2018-12-17T21:49:43.567Z,102124.30
2018-12-17T21:52:11.880Z,102124.30
2018-12-17T21:54:40.214Z,102124.44
2018-12-17T21:57:08.542Z,102130.16
2018-12-17T21:59:36.866Z,102125.07
2018-12-17T22:02:05.187Z,102131.43
2018-12-17T22:04:33.828Z,102124.64
2018-12-17T22:07:02.170Z,102125.06
2018-12-17T22:09:30.914Z,102131.37
2018-12-17T22:11:59.293Z,102134.67
2018-12-17T22:14:27.576Z,102140.50
2018-12-17T22:16:55.885Z,102137.06
2018-12-17T22:19:24.248Z,102139.33
2018-12-17T22:24:45.282Z,102148.85
2018-12-17T22:27:13.532Z,102154.20
2018-12-17T22:29:41.856Z,102160.00
2018-12-17T22:32:10.189Z,102158.63
2018-12-17T22:34:38.799Z,102155.93
2018-12-17T22:37:07.297Z,102150.44
2018-12-17T22:39:35.642Z,102157.73
2018-12-17T22:42:04.145Z,102171.50
2018-12-17T22:44:32.447Z,102169.10
2018-12-17T22:47:00.752Z,102173.09
2018-12-17T22:49:29.034Z,102171.30
2018-12-17T22:51:57.385Z,102165.53
2018-12-17T22:54:25.786Z,102164.84
2018-12-17T22:56:54.076Z,102167.11
2018-12-17T22:59:22.333Z,102170.69
2018-12-17T23:01:50.593Z,102167.52
2018-12-17T23:04:18.963Z,102167.94
2018-12-17T23:06:47.238Z,102171.96
2018-12-17T23:09:14.528Z,102165.57
2018-12-17T23:11:59.702Z,102168.19
2018-12-17T23:14:39.484Z,102171.98
2018-12-17T23:17:19.150Z,102162.03
2018-12-17T23:19:48.112Z,102162.58
2018-12-17T23:22:16.643Z,102163.05
2018-12-17T23:24:44.912Z,102156.73
2018-12-17T23:27:13.260Z,102153.64
2018-12-17T23:29:41.520Z,102155.25
2018-12-17T23:32:09.944Z,102146.62
2018-12-17T23:34:38.244Z,102152.70
2018-12-17T23:37:06.549Z,102153.36
2018-12-17T23:39:34.824Z,102153.78
2018-12-17T23:42:03.153Z,102158.87
2018-12-17T23:44:35.693Z,102157.22
2018-12-17T23:47:03.999Z,102157.42
2018-12-17T23:49:32.257Z,102160.47
2018-12-17T23:52:00.569Z,102158.48
2018-12-17T23:54:28.839Z,102162.03
2018-12-17T23:56:57.095Z,102170.36
2018-12-17T23:59:25.387Z,102165.61
